createdAt,value
2019-03-25T00:01:54.589Z,27.30
2019-03-25T00:04:25.336Z,27.40
2019-03-25T00:06:55.940Z,27.40
2019-03-25T00:09:26.621Z,27.40
2019-03-25T00:11:57.375Z,27.40
2019-03-25T00:14:28.079Z,27.50
2019-03-25T00:16:58.704Z,27.50
2019-03-25T00:19:29.685Z,27.60
2019-03-25T00:22:00.189Z,27.60
2019-03-25T00:24:38.776Z,27.60
2019-03-25T00:27:02.772Z,27.70
2019-03-25T00:29:33.403Z,27.70
2019-03-25T00:32:04.075Z,27.80
2019-03-25T00:34:34.792Z,27.80
2019-03-25T00:37:05.592Z,27.90
2019-03-25T00:39:36.240Z,27.90
2019-03-25T00:42:07.085Z,28.00
2019-03-25T00:44:37.735Z,28.00
2019-03-25T00:47:08.453Z,28.00
2019-03-25T00:49:39.375Z,28.10
2019-03-25T00:52:10.078Z,28.20
2019-03-25T00:54:49.616Z,28.10
2019-03-25T00:57:12.897Z,28.20
2019-03-25T00:59:43.757Z,28.20
2019-03-25T01:02:15.027Z,28.20
2019-03-25T01:04:45.910Z,28.20
2019-03-25T01:07:16.411Z,28.20
2019-03-25T01:09:47.068Z,28.30
2019-03-25T01:12:18.161Z,28.20
2019-03-25T01:14:48.938Z,28.20
2019-03-25T01:17:27.671Z,28.20
2019-03-25T01:19:58.859Z,28.20
2019-03-25T01:22:30.400Z,28.20
2019-03-25T01:25:02.446Z,28.30
2019-03-25T01:27:35.841Z,28.30
2019-03-25T01:30:08.377Z,28.30
2019-03-25T01:32:39.055Z,28.30
2019-03-25T01:35:10.618Z,28.40
2019-03-25T01:37:41.377Z,28.40
2019-03-25T01:40:12.229Z,28.40
2019-03-25T01:42:42.855Z,28.40
2019-03-25T01:45:14.496Z,28.50
2019-03-25T01:47:45.421Z,28.50
2019-03-25T01:50:17.599Z,28.50
2019-03-25T01:52:48.539Z,28.60
2019-03-25T01:55:19.297Z,28.60
2019-03-25T01:57:49.845Z,28.70
2019-03-25T02:00:20.808Z,28.80
2019-03-25T02:02:51.264Z,28.80
2019-03-25T02:05:22.062Z,28.90
2019-03-25T02:07:52.914Z,29.00
2019-03-25T02:10:23.710Z,29.00
2019-03-25T02:12:54.555Z,29.00
2019-03-25T02:15:25.538Z,29.10
2019-03-25T02:17:56.935Z,29.10
2019-03-25T02:20:27.632Z,29.20
2019-03-25T02:22:58.800Z,29.20
2019-03-25T02:25:29.549Z,29.30
2019-03-25T02:28:00.508Z,29.40
2019-03-25T02:30:31.652Z,29.50
2019-03-25T02:35:45.341Z,29.60
2019-03-25T02:38:16.254Z,29.70
2019-03-25T02:40:46.999Z,29.70
2019-03-25T02:43:17.767Z,29.70
2019-03-25T02:46:07.656Z,29.80
2019-03-25T02:48:38.330Z,29.80
2019-03-25T02:51:08.831Z,29.80
2019-03-25T02:53:39.614Z,29.90
2019-03-25T02:56:10.281Z,29.90
2019-03-25T02:58:40.880Z,29.90
2019-03-25T03:01:11.676Z,30.00
2019-03-25T03:03:43.383Z,30.10
2019-03-25T03:06:16.066Z,30.20
2019-03-25T03:08:47.790Z,30.20
2019-03-25T03:11:18.514Z,30.20
2019-03-25T03:13:49.598Z,30.30
2019-03-25T03:16:20.239Z,30.30
2019-03-25T03:18:50.958Z,30.40
2019-03-25T03:21:21.725Z,30.40
2019-03-25T03:23:52.540Z,30.50
2019-03-25T03:26:24.238Z,30.50
2019-03-25T03:28:55.447Z,30.60
2019-03-25T03:31:26.334Z,30.60
2019-03-25T03:33:57.151Z,30.70
2019-03-25T03:36:28.006Z,30.80
2019-03-25T03:38:58.822Z,30.80
2019-03-25T03:41:29.484Z,30.80
2019-03-25T03:44:01.079Z,30.90
2019-03-25T03:46:31.778Z,30.90
2019-03-25T03:49:02.719Z,31.00
2019-03-25T03:51:33.632Z,31.00
2019-03-25T03:54:04.327Z,31.00
2019-03-25T03:56:35.165Z,31.10
2019-03-25T03:59:05.800Z,31.10
2019-03-25T04:01:36.670Z,31.10
2019-03-25T04:04:07.927Z,31.20
2019-03-25T04:06:38.674Z,31.20
2019-03-25T04:09:09.742Z,31.30
2019-03-25T04:11:40.681Z,31.30
2019-03-25T04:14:11.715Z,31.40
2019-03-25T04:16:42.476Z,31.40
2019-03-25T04:19:13.173Z,31.50
2019-03-25T04:21:44.110Z,31.50
2019-03-25T04:24:14.881Z,31.60
2019-03-25T04:26:46.039Z,31.70
2019-03-25T04:29:17.603Z,31.70
2019-03-25T04:31:48.356Z,31.70
2019-03-25T04:34:19.077Z,31.80
2019-03-25T04:36:49.752Z,31.80
2019-03-25T04:39:20.384Z,31.90
2019-03-25T04:41:50.931Z,31.90
2019-03-25T04:44:21.835Z,32.00
2019-03-25T04:46:52.497Z,32.10
2019-03-25T04:49:23.168Z,32.10
2019-03-25T04:51:53.801Z,32.10
2019-03-25T04:54:24.647Z,32.20
2019-03-25T04:56:56.013Z,32.20
2019-03-25T04:59:26.940Z,32.20
2019-03-25T05:01:57.747Z,32.30
2019-03-25T05:04:28.965Z,32.30
2019-03-25T05:06:59.606Z,32.40
2019-03-25T05:09:30.935Z,32.40
2019-03-25T05:12:02.386Z,32.40
2019-03-25T05:14:33.453Z,32.50
2019-03-25T05:17:04.050Z,32.60
2019-03-25T05:19:35.198Z,32.60
2019-03-25T05:22:06.067Z,32.70
2019-03-25T05:24:36.740Z,32.70
2019-03-25T05:27:07.800Z,32.70
2019-03-25T05:29:38.353Z,32.80
2019-03-25T05:32:09.054Z,32.80
2019-03-25T05:34:39.767Z,32.80
2019-03-25T05:37:11.439Z,32.80
2019-03-25T05:39:42.907Z,32.90
2019-03-25T05:42:13.860Z,32.90
2019-03-25T05:44:44.547Z,32.90
2019-03-25T05:47:15.133Z,32.90
2019-03-25T05:49:46.061Z,33.00
2019-03-25T05:52:21.616Z,33.10
2019-03-25T05:54:52.950Z,33.10
2019-03-25T05:57:23.514Z,33.20
2019-03-25T05:59:54.819Z,33.10
2019-03-25T06:02:30.967Z,33.20
2019-03-25T06:05:02.628Z,33.30
2019-03-25T06:07:33.564Z,33.30
2019-03-25T06:10:04.607Z,33.30
2019-03-25T06:12:35.409Z,33.30
2019-03-25T06:15:11.328Z,33.40
2019-03-25T06:17:45.140Z,33.40
2019-03-25T06:20:16.385Z,33.40
2019-03-25T06:22:47.150Z,33.40
2019-03-25T06:25:17.748Z,33.40
2019-03-25T06:27:49.145Z,33.40
2019-03-25T06:30:20.391Z,33.50
2019-03-25T06:32:51.297Z,33.50
2019-03-25T06:35:24.452Z,33.50
2019-03-25T06:37:54.938Z,33.60
2019-03-25T06:40:25.866Z,33.50
2019-03-25T06:42:56.671Z,33.50
2019-03-25T06:45:28.216Z,33.50
2019-03-25T06:47:58.874Z,33.50
2019-03-25T06:50:29.577Z,33.50
2019-03-25T06:53:01.723Z,33.50
2019-03-25T06:55:32.419Z,33.50
2019-03-25T06:58:03.222Z,33.50
2019-03-25T07:00:34.025Z,33.60
2019-03-25T07:03:05.480Z,33.60
2019-03-25T07:05:36.374Z,33.60
2019-03-25T07:08:07.175Z,33.60
2019-03-25T07:10:39.210Z,33.70
2019-03-25T07:13:10.272Z,33.70
2019-03-25T07:15:41.053Z,33.80
2019-03-25T07:18:11.797Z,33.80
2019-03-25T07:20:42.405Z,33.80
2019-03-25T07:23:13.190Z,33.80
2019-03-25T07:25:43.905Z,33.80
2019-03-25T07:28:14.477Z,33.70
2019-03-25T07:30:47.651Z,33.80
2019-03-25T07:33:19.983Z,33.80
2019-03-25T07:35:50.657Z,33.70
2019-03-25T07:38:21.571Z,33.70
2019-03-25T07:40:52.177Z,33.70
2019-03-25T07:43:23.032Z,33.70
2019-03-25T07:45:53.851Z,33.70
2019-03-25T07:48:24.659Z,33.70
2019-03-25T07:50:55.262Z,33.70
2019-03-25T07:53:25.993Z,33.80
2019-03-25T07:55:59.624Z,33.80
2019-03-25T07:58:37.722Z,33.80
2019-03-25T08:01:08.952Z,33.90
2019-03-25T08:03:39.893Z,33.90
2019-03-25T08:06:11.123Z,33.90
2019-03-25T08:08:42.708Z,33.90
2019-03-25T08:11:15.038Z,33.90
2019-03-25T08:13:48.412Z,33.90
2019-03-25T08:16:20.664Z,33.90
2019-03-25T08:18:51.808Z,33.90
2019-03-25T08:21:25.094Z,33.90
2019-03-25T08:23:56.427Z,33.80
2019-03-25T08:26:38.140Z,33.90
2019-03-25T08:29:13.317Z,33.90
2019-03-25T08:31:45.360Z,33.90
2019-03-25T08:34:17.174Z,33.90
2019-03-25T08:36:48.477Z,33.90
2019-03-25T08:39:20.047Z,33.80
2019-03-25T08:41:52.117Z,33.80
2019-03-25T08:44:23.173Z,33.80
2019-03-25T08:46:57.216Z,33.80
2019-03-25T08:49:28.312Z,33.80
2019-03-25T08:51:58.968Z,33.80
2019-03-25T08:54:30.795Z,33.90
2019-03-25T08:57:01.537Z,33.90
2019-03-25T08:59:32.377Z,33.90
2019-03-25T09:02:03.177Z,33.80
2019-03-25T09:04:42.120Z,33.80
2019-03-25T09:07:13.729Z,33.70
2019-03-25T09:09:44.577Z,33.70
2019-03-25T09:12:16.116Z,33.70
2019-03-25T09:14:47.025Z,33.70
2019-03-25T09:17:22.250Z,33.80
2019-03-25T09:19:53.514Z,33.80
2019-03-25T09:22:24.197Z,33.80
2019-03-25T09:24:55.063Z,33.90
2019-03-25T09:27:25.699Z,33.90
2019-03-25T09:29:56.266Z,33.90
2019-03-25T09:32:26.837Z,33.90
2019-03-25T09:34:57.617Z,33.80
2019-03-25T09:37:28.450Z,33.90
2019-03-25T09:39:59.086Z,33.80
2019-03-25T09:42:30.106Z,33.90
2019-03-25T09:45:00.747Z,33.80
2019-03-25T09:47:31.439Z,33.80
2019-03-25T09:50:02.250Z,33.80
2019-03-25T09:52:38.566Z,33.80
2019-03-25T09:55:06.288Z,33.70
2019-03-25T09:57:37.286Z,33.70
2019-03-25T10:00:10.800Z,33.60
2019-03-25T10:02:41.524Z,33.50
2019-03-25T10:05:18.427Z,33.50
2019-03-25T10:07:48.943Z,33.40
2019-03-25T10:10:19.493Z,33.40
2019-03-25T10:12:50.538Z,33.40
2019-03-25T10:15:21.120Z,33.30
2019-03-25T10:17:51.760Z,33.30
2019-03-25T10:20:22.315Z,33.30
2019-03-25T10:22:52.949Z,33.20
2019-03-25T10:25:23.493Z,33.20
2019-03-25T10:27:54.225Z,33.10
2019-03-25T10:30:24.920Z,33.10
2019-03-25T10:32:55.561Z,33.10
2019-03-25T10:35:27.504Z,33.10
2019-03-25T10:37:58.024Z,33.10
2019-03-25T10:40:29.178Z,33.00
2019-03-25T10:42:59.940Z,33.00
2019-03-25T10:45:30.550Z,33.00
2019-03-25T10:48:01.199Z,33.00
2019-03-25T10:50:31.817Z,32.90
2019-03-25T10:53:02.332Z,32.90
2019-03-25T10:55:33.007Z,32.90
2019-03-25T10:58:03.785Z,32.90
2019-03-25T11:00:34.565Z,32.80
2019-03-25T11:03:05.399Z,32.80
2019-03-25T11:05:35.876Z,32.80
2019-03-25T11:08:06.621Z,32.70
2019-03-25T11:10:37.181Z,32.70
2019-03-25T11:13:07.637Z,32.70
2019-03-25T11:15:38.323Z,32.60
2019-03-25T11:18:09.029Z,32.50
2019-03-25T11:20:39.871Z,32.50
2019-03-25T11:23:10.530Z,32.40
2019-03-25T11:25:41.031Z,32.40
2019-03-25T11:28:12.379Z,32.30
2019-03-25T11:30:44.063Z,32.20
2019-03-25T11:33:14.679Z,32.20
2019-03-25T11:35:45.327Z,32.20
2019-03-25T11:38:15.855Z,32.10
2019-03-25T11:40:46.453Z,32.10
2019-03-25T11:43:17.110Z,32.00
2019-03-25T11:45:48.848Z,32.00
2019-03-25T11:48:19.585Z,32.00
2019-03-25T11:50:50.096Z,31.90
2019-03-25T11:53:21.336Z,31.90
2019-03-25T11:55:52.096Z,31.80
2019-03-25T11:58:23.360Z,31.80
2019-03-25T12:00:53.961Z,31.80
2019-03-25T12:03:24.834Z,31.70
2019-03-25T12:05:55.739Z,31.70
2019-03-25T12:08:26.215Z,31.70
2019-03-25T12:10:57.857Z,31.60
2019-03-25T12:13:28.794Z,31.60
2019-03-25T12:15:59.339Z,31.60
2019-03-25T12:18:29.925Z,31.50
2019-03-25T12:21:00.660Z,31.50
2019-03-25T12:23:31.343Z,31.50
2019-03-25T12:26:02.028Z,31.50
2019-03-25T12:28:32.449Z,31.50
2019-03-25T12:31:03.351Z,31.40
2019-03-25T12:33:34.090Z,31.50
2019-03-25T12:36:04.672Z,31.40
2019-03-25T12:38:35.325Z,31.50
2019-03-25T12:41:06.132Z,31.40
2019-03-25T12:43:36.666Z,31.50
2019-03-25T12:46:07.609Z,31.50
2019-03-25T12:48:38.366Z,31.50
2019-03-25T12:51:09.067Z,31.50
2019-03-25T12:53:39.659Z,31.50
2019-03-25T12:56:10.286Z,31.50
2019-03-25T12:58:41.162Z,31.40
2019-03-25T13:01:11.771Z,31.40
2019-03-25T13:03:42.385Z,31.40
2019-03-25T13:06:13.168Z,31.40
2019-03-25T13:08:43.745Z,31.40
2019-03-25T13:11:14.541Z,31.40
2019-03-25T13:13:46.059Z,31.40
2019-03-25T13:16:16.746Z,31.30
2019-03-25T13:18:47.409Z,31.30
2019-03-25T13:21:18.185Z,31.30
2019-03-25T13:23:48.642Z,31.30
2019-03-25T13:26:19.399Z,31.30
2019-03-25T13:28:57.416Z,31.30
2019-03-25T13:31:21.953Z,31.30
2019-03-25T13:33:52.460Z,31.30
2019-03-25T13:36:23.374Z,31.30
2019-03-25T13:38:53.977Z,31.20
2019-03-25T13:41:24.756Z,31.20
2019-03-25T13:43:55.273Z,31.20
2019-03-25T13:46:25.713Z,31.10
2019-03-25T13:48:56.419Z,31.10
2019-03-25T13:51:26.972Z,31.10
2019-03-25T13:53:57.576Z,31.00
2019-03-25T13:56:28.147Z,31.00
2019-03-25T13:58:58.805Z,31.00
2019-03-25T14:01:29.415Z,30.90
2019-03-25T14:04:00.030Z,30.90
2019-03-25T14:06:30.658Z,30.90
2019-03-25T14:09:01.279Z,30.80
2019-03-25T14:11:31.909Z,30.80
2019-03-25T14:14:02.480Z,30.80
2019-03-25T14:16:33.215Z,30.80
2019-03-25T14:19:03.869Z,30.70
2019-03-25T14:21:34.618Z,30.70
2019-03-25T14:24:05.374Z,30.70
2019-03-25T14:26:36.007Z,30.70
2019-03-25T14:29:06.503Z,30.60
2019-03-25T14:31:37.189Z,30.60
2019-03-25T14:34:07.762Z,30.60
2019-03-25T14:36:38.421Z,30.60
2019-03-25T14:39:09.237Z,30.60
2019-03-25T14:41:39.876Z,30.60
2019-03-25T14:44:10.941Z,30.60
2019-03-25T14:46:41.445Z,30.60
2019-03-25T14:49:12.117Z,30.50
2019-03-25T14:51:42.888Z,30.50
2019-03-25T14:54:13.659Z,30.40
2019-03-25T14:56:44.137Z,30.50
2019-03-25T14:59:14.854Z,30.40
2019-03-25T15:01:45.389Z,30.40
2019-03-25T15:04:15.883Z,30.40
2019-03-25T15:06:46.698Z,30.30
2019-03-25T15:09:17.488Z,30.30
2019-03-25T15:11:48.039Z,30.30
2019-03-25T15:14:18.609Z,30.30
2019-03-25T15:16:49.175Z,30.30
2019-03-25T15:19:20.011Z,30.30
2019-03-25T15:21:50.777Z,30.30
2019-03-25T15:24:21.350Z,30.30
2019-03-25T15:26:51.997Z,30.30
2019-03-25T15:29:22.589Z,30.30
2019-03-25T15:31:53.212Z,30.30
2019-03-25T15:34:23.981Z,30.30
2019-03-25T15:36:54.846Z,30.30
2019-03-25T15:39:25.505Z,30.20
2019-03-25T15:41:55.905Z,30.20
2019-03-25T15:44:26.663Z,30.30
2019-03-25T15:46:57.277Z,30.20
2019-03-25T15:49:27.922Z,30.20
2019-03-25T15:51:58.717Z,30.20
2019-03-25T15:54:29.485Z,30.20
2019-03-25T15:57:00.222Z,30.10
2019-03-25T15:59:31.267Z,30.10
2019-03-25T16:02:01.880Z,30.00
2019-03-25T16:04:32.614Z,30.00
2019-03-25T16:07:03.495Z,30.00
2019-03-25T16:09:34.229Z,29.90
2019-03-25T16:12:05.063Z,29.90
2019-03-25T16:14:35.853Z,29.80
2019-03-25T16:17:06.355Z,29.80
2019-03-25T16:19:37.027Z,29.70
2019-03-25T16:22:07.880Z,29.70
2019-03-25T16:24:38.535Z,29.70
2019-03-25T16:27:09.158Z,29.60
2019-03-25T16:29:40.257Z,29.60
2019-03-25T16:32:11.159Z,29.60
2019-03-25T16:34:41.905Z,29.60
2019-03-25T16:37:12.462Z,29.60
2019-03-25T16:39:43.064Z,29.50
2019-03-25T16:42:13.783Z,29.50
2019-03-25T16:44:44.289Z,29.40
2019-03-25T16:47:14.898Z,29.40
2019-03-25T16:49:45.861Z,29.40
2019-03-25T16:52:16.531Z,29.40
2019-03-25T16:54:47.264Z,29.30
2019-03-25T16:57:17.900Z,29.30
2019-03-25T16:59:48.324Z,29.30
2019-03-25T17:02:19.394Z,29.20
2019-03-25T17:04:50.114Z,29.20
2019-03-25T17:07:20.772Z,29.20
2019-03-25T17:09:51.626Z,29.20
2019-03-25T17:12:22.273Z,29.10
2019-03-25T17:14:52.948Z,29.10
2019-03-25T17:17:23.874Z,29.00
2019-03-25T17:19:54.627Z,29.10
2019-03-25T17:22:25.137Z,29.00
2019-03-25T17:24:55.878Z,29.00
2019-03-25T17:27:26.684Z,29.00
2019-03-25T17:29:57.358Z,28.90
2019-03-25T17:32:28.039Z,29.00
2019-03-25T17:34:58.908Z,29.00
2019-03-25T17:37:29.579Z,28.90
2019-03-25T17:40:00.325Z,29.00
2019-03-25T17:42:31.022Z,28.90
2019-03-25T17:45:01.575Z,28.90
2019-03-25T17:47:32.285Z,28.90
2019-03-25T17:50:03.023Z,28.90
2019-03-25T17:52:33.873Z,28.90
2019-03-25T17:55:05.480Z,28.80
2019-03-25T17:57:36.003Z,28.90
2019-03-25T18:00:09.506Z,28.90
2019-03-25T18:02:40.094Z,28.80
2019-03-25T18:05:10.967Z,28.80
2019-03-25T18:07:41.637Z,28.70
2019-03-25T18:10:12.138Z,28.70
2019-03-25T18:12:42.789Z,28.60
2019-03-25T18:15:13.759Z,28.60
2019-03-25T18:17:44.398Z,28.60
2019-03-25T18:20:18.827Z,28.60
2019-03-25T18:22:47.320Z,28.60
2019-03-25T18:25:17.864Z,28.60
2019-03-25T18:27:48.435Z,28.60
2019-03-25T18:30:20.554Z,28.60
2019-03-25T18:32:51.215Z,28.60
2019-03-25T18:35:24.455Z,28.50
2019-03-25T18:37:55.805Z,28.50
2019-03-25T18:40:26.333Z,28.50
2019-03-25T18:42:56.952Z,28.50
2019-03-25T18:45:27.567Z,28.50
2019-03-25T18:47:58.348Z,28.40
2019-03-25T18:50:28.858Z,28.40
2019-03-25T18:52:59.418Z,28.40
2019-03-25T18:55:30.266Z,28.40
2019-03-25T18:58:00.979Z,28.40
2019-03-25T19:00:34.311Z,28.40
2019-03-25T19:03:05.205Z,28.40
2019-03-25T19:05:35.850Z,28.40
2019-03-25T19:08:07.058Z,28.40
2019-03-25T19:13:28.538Z,28.40
2019-03-25T19:15:59.011Z,28.40
2019-03-25T19:18:29.959Z,28.30
2019-03-25T19:21:00.892Z,28.30
2019-03-25T19:23:31.643Z,28.30
2019-03-25T19:26:02.236Z,28.30
2019-03-25T19:28:32.867Z,28.30
2019-03-25T19:31:03.899Z,28.30
2019-03-25T19:33:34.665Z,28.30
2019-03-25T19:36:05.339Z,28.30
2019-03-25T19:38:36.146Z,28.30
2019-03-25T19:41:06.590Z,28.20
2019-03-25T19:43:37.248Z,28.20
2019-03-25T19:46:07.847Z,28.20
2019-03-25T19:48:38.416Z,28.20
2019-03-25T19:51:09.087Z,28.20
2019-03-25T19:53:39.770Z,28.20
2019-03-25T19:56:10.666Z,28.20
2019-03-25T19:58:41.469Z,28.10
2019-03-25T20:01:12.134Z,28.10
2019-03-25T20:03:42.834Z,28.00
2019-03-25T20:06:13.465Z,28.00
2019-03-25T20:08:44.277Z,27.90
2019-03-25T20:11:14.938Z,28.00
2019-03-25T20:13:45.601Z,27.90
2019-03-25T20:16:16.391Z,28.00
2019-03-25T20:18:47.083Z,27.90
2019-03-25T20:21:18.346Z,27.80
2019-03-25T20:23:50.449Z,27.80
2019-03-25T20:26:21.119Z,27.80
2019-03-25T20:28:51.775Z,27.70
2019-03-25T20:31:22.590Z,27.70
2019-03-25T20:33:53.308Z,27.70
2019-03-25T20:36:24.039Z,27.70
2019-03-25T20:38:54.590Z,27.60
2019-03-25T20:41:25.297Z,27.60
2019-03-25T20:43:55.973Z,27.60
2019-03-25T20:46:26.736Z,27.60
2019-03-25T20:48:57.287Z,27.60
2019-03-25T20:51:28.092Z,27.50
2019-03-25T20:53:58.601Z,27.50
2019-03-25T20:56:29.369Z,27.50
2019-03-25T20:58:59.960Z,27.40
2019-03-25T21:01:30.424Z,27.40
2019-03-25T21:04:01.207Z,27.40
2019-03-25T21:06:31.948Z,27.40
2019-03-25T21:09:02.900Z,27.40
2019-03-25T21:11:33.665Z,27.40
2019-03-25T21:14:04.266Z,27.40
2019-03-25T21:16:35.130Z,27.30
2019-03-25T21:19:05.951Z,27.30
2019-03-25T21:21:36.623Z,27.30
2019-03-25T21:24:07.236Z,27.20
2019-03-25T21:26:37.935Z,27.20
2019-03-25T21:29:08.891Z,27.20
2019-03-25T21:31:39.752Z,27.20
2019-03-25T21:34:10.460Z,27.20
2019-03-25T21:36:41.400Z,27.20
2019-03-25T21:39:12.016Z,27.20
2019-03-25T21:41:42.441Z,27.20
2019-03-25T21:44:13.184Z,27.20
2019-03-25T21:46:44.013Z,27.20
2019-03-25T21:49:15.059Z,27.20
2019-03-25T21:51:45.847Z,27.20
2019-03-25T21:54:16.601Z,27.20
2019-03-25T21:56:47.395Z,27.20
2019-03-25T21:59:18.131Z,27.10
2019-03-25T22:01:48.752Z,27.20
2019-03-25T22:04:19.478Z,27.20
2019-03-25T22:06:49.991Z,27.20
2019-03-25T23:42:01.244Z,26.90
2019-03-25T23:44:32.007Z,26.90
2019-03-25T23:47:03.003Z,26.90
2019-03-25T23:49:33.824Z,27.00
2019-03-25T23:52:04.555Z,27.00
2019-03-25T23:54:36.089Z,27.00
2019-03-25T23:57:06.753Z,27.00
2019-03-25T23:59:37.520Z,27.10
